sensor_id;sensor_type;location;lat;lon;timestamp;pressure;altitude;pressure_sealevel;temperature;humidity
55914;BME280;58179;48.776;9.124;2023-01-25T00:02:25;98923.72;;;0.97;100.00
55914;BME280;58179;48.776;9.124;2023-01-25T00:04:51;98929.75;;;0.97;100.00
55914;BME280;58179;48.776;9.124;2023-01-25T00:07:17;98927.78;;;0.99;100.00
55914;BME280;58179;48.776;9.124;2023-01-25T00:09:43;98925.16;;;0.99;100.00
55914;BME280;58179;48.776;9.124;2023-01-25T00:12:09;98915.56;;;1.00;100.00
55914;BME280;58179;48.776;9.124;2023-01-25T00:14:35;98914.75;;;0.99;100.00
55914;BME280;58179;48.776;9.124;2023-01-25T00:17:03;98906.09;;;0.99;100.00
55914;BME280;58179;48.776;9.124;2023-01-25T00:19:29;98909.38;;;1.01;100.00
55914;BME280;58179;48.776;9.124;2023-01-25T00:21:54;98903.34;;;1.00;100.00
55914;BME280;58179;48.776;9.124;2023-01-25T00:24:20;98901.72;;;0.99;100.00
55914;BME280;58179;48.776;9.124;2023-01-25T00:26:50;98898.28;;;0.99;100.00
55914;BME280;58179;48.776;9.124;2023-01-25T00:29:16;98908.56;;;1.00;100.00
55914;BME280;58179;48.776;9.124;2023-01-25T00:31:53;98906.91;;;0.99;100.00
55914;BME280;58179;48.776;9.124;2023-01-25T00:34:45;98897.47;;;0.98;100.00
55914;BME280;58179;48.776;9.124;2023-01-25T00:37:19;98913.91;;;0.99;100.00
55914;BME280;58179;48.776;9.124;2023-01-25T00:39:48;98906.28;;;0.97;100.00
55914;BME280;58179;48.776;9.124;2023-01-25T00:42:16;98908.88;;;0.97;100.00
55914;BME280;58179;48.776;9.124;2023-01-25T00:44:43;98912.97;;;1.00;100.00
55914;BME280;58179;48.776;9.124;2023-01-25T00:47:09;98909.53;;;0.99;100.00
55914;BME280;58179;48.776;9.124;2023-01-25T00:49:35;98905.13;;;1.00;100.00
55914;BME280;58179;48.776;9.124;2023-01-25T00:52:04;98900.75;;;1.00;100.00
55914;BME280;58179;48.776;9.124;2023-01-25T00:54:30;98898.94;;;1.01;100.00
55914;BME280;58179;48.776;9.124;2023-01-25T00:56:56;98897.97;;;1.02;100.00
55914;BME280;58179;48.776;9.124;2023-01-25T00:59:23;98887.56;;;1.02;100.00
55914;BME280;58179;48.776;9.124;2023-01-25T01:01:50;98886.75;;;1.01;100.00
55914;BME280;58179;48.776;9.124;2023-01-25T01:04:16;98886.75;;;1.01;100.00
55914;BME280;58179;48.776;9.124;2023-01-25T01:06:42;98884.94;;;1.02;100.00
55914;BME280;58179;48.776;9.124;2023-01-25T01:09:13;98885.91;;;1.01;100.00
55914;BME280;58179;48.776;9.124;2023-01-25T01:11:40;98888.53;;;1.01;100.00
55914;BME280;58179;48.776;9.124;2023-01-25T01:14:07;98891.13;;;1.01;100.00
55914;BME280;58179;48.776;9.124;2023-01-25T01:16:34;98880.69;;;1.01;100.00
55914;BME280;58179;48.776;9.124;2023-01-25T01:19:00;98884.28;;;1.00;100.00
55914;BME280;58179;48.776;9.124;2023-01-25T01:21:26;98877.28;;;1.00;100.00
55914;BME280;58179;48.776;9.124;2023-01-25T01:23:53;98885.91;;;1.01;100.00
55914;BME280;58179;48.776;9.124;2023-01-25T01:26:21;98892.91;;;1.00;100.00
55914;BME280;58179;48.776;9.124;2023-01-25T01:28:47;98891.28;;;0.99;100.00
55914;BME280;58179;48.776;9.124;2023-01-25T01:31:15;98886.88;;;1.00;100.00
55914;BME280;58179;48.776;9.124;2023-01-25T01:33:41;98883.47;;;0.99;100.00
55914;BME280;58179;48.776;9.124;2023-01-25T01:36:09;98884.28;;;1.00;100.00
55914;BME280;58179;48.776;9.124;2023-01-25T01:38:35;98885.09;;;1.00;100.00
55914;BME280;58179;48.776;9.124;2023-01-25T01:41:02;98883.47;;;0.99;100.00
55914;BME280;58179;48.776;9.124;2023-01-25T01:43:29;98879.22;;;0.98;100.00
55914;BME280;58179;48.776;9.124;2023-01-25T01:46:00;98882.63;;;0.99;100.00
55914;BME280;58179;48.776;9.124;2023-01-25T01:48:35;98883.47;;;0.99;100.00
55914;BME280;58179;48.776;9.124;2023-01-25T01:51:07;98884.41;;;0.98;100.00
55914;BME280;58179;48.776;9.124;2023-01-25T01:53:35;98885.09;;;1.00;100.00
55914;BME280;58179;48.776;9.124;2023-01-25T01:56:07;98885.09;;;1.00;100.00
55914;BME280;58179;48.776;9.124;2023-01-25T01:58:36;98884.13;;;1.01;100.00
55914;BME280;58179;48.776;9.124;2023-01-25T02:01:02;98885.09;;;1.00;100.00
55914;BME280;58179;48.776;9.124;2023-01-25T02:03:29;98886.88;;;1.00;100.00
55914;BME280;58179;48.776;9.124;2023-01-25T02:06:01;98884.13;;;1.01;100.00
55914;BME280;58179;48.776;9.124;2023-01-25T02:08:32;98886.59;;;1.03;100.00
55914;BME280;58179;48.776;9.124;2023-01-25T02:10:59;98876.97;;;1.03;100.00
55914;BME280;58179;48.776;9.124;2023-01-25T02:13:26;98883.00;;;1.04;100.00
55914;BME280;58179;48.776;9.124;2023-01-25T02:15:54;98881.38;;;1.03;100.00
55914;BME280;58179;48.776;9.124;2023-01-25T02:18:21;98875.34;;;1.02;100.00
55914;BME280;58179;48.776;9.124;2023-01-25T02:20:51;98873.56;;;1.03;100.00
55914;BME280;58179;48.776;9.124;2023-01-25T02:23:24;98870.13;;;1.02;100.00
55914;BME280;58179;48.776;9.124;2023-01-25T02:25:57;98878.91;;;1.01;100.00
55914;BME280;58179;48.776;9.124;2023-01-25T02:28:28;98883.16;;;1.02;100.00
55914;BME280;58179;48.776;9.124;2023-01-25T02:30:55;98871.09;;;1.01;100.00
55914;BME280;58179;48.776;9.124;2023-01-25T02:33:22;98871.09;;;1.01;100.00
55914;BME280;58179;48.776;9.124;2023-01-25T02:35:50;98865.06;;;1.01;100.00
55914;BME280;58179;48.776;9.124;2023-01-25T02:38:19;98866.03;;;1.00;100.00
55914;BME280;58179;48.776;9.124;2023-01-25T02:40:50;98858.06;;;1.01;100.00
55914;BME280;58179;48.776;9.124;2023-01-25T02:43:20;98854.47;;;1.02;100.00
55914;BME280;58179;48.776;9.124;2023-01-25T02:45:53;98856.28;;;1.02;100.00
55914;BME280;58179;48.776;9.124;2023-01-25T02:48:22;98870.13;;;1.02;100.00
55914;BME280;58179;48.776;9.124;2023-01-25T02:50:48;98864.09;;;1.02;100.00
55914;BME280;58179;48.776;9.124;2023-01-25T02:53:14;98863.28;;;1.01;100.00
55914;BME280;58179;48.776;9.124;2023-01-25T02:55:40;98858.88;;;1.02;100.00
55914;BME280;58179;48.776;9.124;2023-01-25T02:58:06;98850.22;;;1.01;100.00
55914;BME280;58179;48.776;9.124;2023-01-25T03:00:33;98848.44;;;1.02;100.00
55914;BME280;58179;48.776;9.124;2023-01-25T03:02:59;98848.31;;;1.03;100.00
55914;BME280;58179;48.776;9.124;2023-01-25T03:05:25;98846.50;;;1.04;100.00
55914;BME280;58179;48.776;9.124;2023-01-25T03:07:51;98841.44;;;1.02;100.00
55914;BME280;58179;48.776;9.124;2023-01-25T03:10:17;98837.06;;;1.03;100.00
55914;BME280;58179;48.776;9.124;2023-01-25T03:12:43;98838.84;;;1.02;100.00
55914;BME280;58179;48.776;9.124;2023-01-25T03:15:09;98835.41;;;1.02;100.00
55914;BME280;58179;48.776;9.124;2023-01-25T03:17:36;98826.78;;;1.01;100.00
55914;BME280;58179;48.776;9.124;2023-01-25T03:20:03;98825.13;;;1.00;100.00
55914;BME280;58179;48.776;9.124;2023-01-25T03:22:30;98811.44;;;0.98;100.00
55914;BME280;58179;48.776;9.124;2023-01-25T03:24:56;98824.47;;;0.98;100.00
55914;BME280;58179;48.776;9.124;2023-01-25T03:27:22;98810.59;;;0.98;100.00
55914;BME280;58179;48.776;9.124;2023-01-25T03:29:48;98812.09;;;1.00;100.00
55914;BME280;58179;48.776;9.124;2023-01-25T03:32:14;98811.44;;;0.98;100.00
55914;BME280;58179;48.776;9.124;2023-01-25T03:34:41;98803.59;;;0.98;100.00
55914;BME280;58179;48.776;9.124;2023-01-25T03:37:07;98813.22;;;0.98;100.00
55914;BME280;58179;48.776;9.124;2023-01-25T03:39:33;98805.09;;;1.01;100.00
55914;BME280;58179;48.776;9.124;2023-01-25T03:41:59;98810.47;;;0.99;100.00
55914;BME280;58179;48.776;9.124;2023-01-25T03:44:25;98815.81;;;0.98;100.00
55914;BME280;58179;48.776;9.124;2023-01-25T03:46:51;98812.44;;;0.97;100.00
55914;BME280;58179;48.776;9.124;2023-01-25T03:49:17;98815.53;;;1.01;100.00
55914;BME280;58179;48.776;9.124;2023-01-25T03:51:44;98810.47;;;0.99;100.00
55914;BME280;58179;48.776;9.124;2023-01-25T03:54:10;98800.69;;;1.01;100.00
55914;BME280;58179;48.776;9.124;2023-01-25T03:56:37;98802.63;;;0.99;100.00
55914;BME280;58179;48.776;9.124;2023-01-25T03:59:03;98805.91;;;1.01;100.00
55914;BME280;58179;48.776;9.124;2023-01-25T04:01:29;98802.50;;;1.01;100.00
55914;BME280;58179;48.776;9.124;2023-01-25T04:03:55;98807.03;;;0.99;100.00
55914;BME280;58179;48.776;9.124;2023-01-25T04:06:21;98808.66;;;1.00;100.00
55914;BME280;58179;48.776;9.124;2023-01-25T04:08:48;98802.50;;;1.01;100.00
55914;BME280;58179;48.776;9.124;2023-01-25T04:11:14;98803.47;;;1.00;100.00
55914;BME280;58179;48.776;9.124;2023-01-25T04:13:40;98802.63;;;0.99;100.00
55914;BME280;58179;48.776;9.124;2023-01-25T04:16:08;98807.03;;;0.99;100.00
55914;BME280;58179;48.776;9.124;2023-01-25T04:18:36;98802.63;;;0.99;100.00
55914;BME280;58179;48.776;9.124;2023-01-25T04:21:02;98801.81;;;0.99;100.00
55914;BME280;58179;48.776;9.124;2023-01-25T04:23:28;98800.19;;;0.98;100.00
55914;BME280;58179;48.776;9.124;2023-01-25T04:25:57;98802.78;;;0.98;100.00
55914;BME280;58179;48.776;9.124;2023-01-25T04:28:24;98797.41;;;0.99;100.00
55914;BME280;58179;48.776;9.124;2023-01-25T04:30:50;98802.63;;;0.99;100.00
55914;BME280;58179;48.776;9.124;2023-01-25T04:33:16;98806.06;;;1.00;100.00
55914;BME280;58179;48.776;9.124;2023-01-25T04:35:43;98795.78;;;0.98;100.00
55914;BME280;58179;48.776;9.124;2023-01-25T04:38:09;98786.34;;;0.97;100.00
55914;BME280;58179;48.776;9.124;2023-01-25T04:40:36;98785.53;;;0.97;100.00
55914;BME280;58179;48.776;9.124;2023-01-25T04:43:03;98789.13;;;0.96;100.00
55914;BME280;58179;48.776;9.124;2023-01-25T04:45:31;98790.91;;;0.95;100.00
55914;BME280;58179;48.776;9.124;2023-01-25T04:48:01;98789.94;;;0.96;100.00
55914;BME280;58179;48.776;9.124;2023-01-25T04:50:27;98789.94;;;0.96;100.00
55914;BME280;58179;48.776;9.124;2023-01-25T04:52:53;98794.97;;;0.98;100.00
55914;BME280;58179;48.776;9.124;2023-01-25T04:55:20;98788.28;;;0.95;100.00
55914;BME280;58179;48.776;9.124;2023-01-25T04:57:48;98788.16;;;0.97;100.00
55914;BME280;58179;48.776;9.124;2023-01-25T05:00:17;98793.34;;;0.97;100.00
55914;BME280;58179;48.776;9.124;2023-01-25T05:02:43;98787.16;;;0.98;100.00
55914;BME280;58179;48.776;9.124;2023-01-25T05:05:09;98783.91;;;0.96;100.00
55914;BME280;58179;48.776;9.124;2023-01-25T05:07:35;98786.50;;;0.96;100.00
55914;BME280;58179;48.776;9.124;2023-01-25T05:10:02;98789.75;;;0.98;100.00
55914;BME280;58179;48.776;9.124;2023-01-25T05:12:28;98783.75;;;0.97;100.00
55914;BME280;58179;48.776;9.124;2023-01-25T05:14:54;98787.31;;;0.96;100.00
55914;BME280;58179;48.776;9.124;2023-01-25T05:17:22;98785.53;;;0.97;100.00
55914;BME280;58179;48.776;9.124;2023-01-25T05:19:50;98778.84;;;0.94;100.00
55914;BME280;58179;48.776;9.124;2023-01-25T05:22:17;98785.84;;;0.94;100.00
55914;BME280;58179;48.776;9.124;2023-01-25T05:24:46;98781.59;;;0.93;100.00
55914;BME280;58179;48.776;9.124;2023-01-25T05:27:13;98783.38;;;0.92;100.00
55914;BME280;58179;48.776;9.124;2023-01-25T05:29:42;98780.63;;;0.94;100.00
55914;BME280;58179;48.776;9.124;2023-01-25T05:32:11;98774.72;;;0.92;100.00
55914;BME280;58179;48.776;9.124;2023-01-25T05:34:39;98772.66;;;0.95;100.00
55914;BME280;58179;48.776;9.124;2023-01-25T05:37:09;98777.03;;;0.95;100.00
55914;BME280;58179;48.776;9.124;2023-01-25T05:39:36;98771.16;;;0.93;100.00
55914;BME280;58179;48.776;9.124;2023-01-25T05:42:02;98769.38;;;0.93;100.00
55914;BME280;58179;48.776;9.124;2023-01-25T05:44:28;98774.44;;;0.95;100.00
55914;BME280;58179;48.776;9.124;2023-01-25T05:46:54;98774.59;;;0.93;100.00
55914;BME280;58179;48.776;9.124;2023-01-25T05:49:20;98773.63;;;0.94;100.00
55914;BME280;58179;48.776;9.124;2023-01-25T05:51:47;98769.53;;;0.92;100.00
55914;BME280;58179;48.776;9.124;2023-01-25T05:54:15;98765.28;;;0.91;100.00
55914;BME280;58179;48.776;9.124;2023-01-25T05:56:44;98768.69;;;0.91;100.00
55914;BME280;58179;48.776;9.124;2023-01-25T05:59:11;98762.38;;;0.94;100.00
55914;BME280;58179;48.776;9.124;2023-01-25T06:01:37;98761.69;;;0.92;100.00
55914;BME280;58179;48.776;9.124;2023-01-25T06:04:04;98764.50;;;0.90;100.00
55914;BME280;58179;48.776;9.124;2023-01-25T06:06:30;98770.50;;;0.91;100.00
55914;BME280;58179;48.776;9.124;2023-01-25T06:08:57;98760.88;;;0.91;100.00
55914;BME280;58179;48.776;9.124;2023-01-25T06:11:23;98762.66;;;0.91;100.00
55914;BME280;58179;48.776;9.124;2023-01-25T06:13:50;98763.50;;;0.91;100.00
55914;BME280;58179;48.776;9.124;2023-01-25T06:16:16;98757.47;;;0.91;100.00
55914;BME280;58179;48.776;9.124;2023-01-25T06:18:43;98757.31;;;0.92;100.00
55914;BME280;58179;48.776;9.124;2023-01-25T06:21:09;98762.53;;;0.92;100.00
55914;BME280;58179;48.776;9.124;2023-01-25T06:23:35;98763.50;;;0.91;100.00
55914;BME280;58179;48.776;9.124;2023-01-25T06:26:05;98758.94;;;0.93;100.00
55914;BME280;58179;48.776;9.124;2023-01-25T06:28:32;98760.72;;;0.93;100.00
55914;BME280;58179;48.776;9.124;2023-01-25T06:31:06;98761.56;;;0.93;100.00
55914;BME280;58179;48.776;9.124;2023-01-25T06:33:33;98757.97;;;0.94;100.00
55914;BME280;58179;48.776;9.124;2023-01-25T06:36:00;98757.31;;;0.92;100.00
55914;BME280;58179;48.776;9.124;2023-01-25T06:38:27;98750.31;;;0.93;100.00
55914;BME280;58179;48.776;9.124;2023-01-25T06:40:53;98755.66;;;0.91;100.00
55914;BME280;58179;48.776;9.124;2023-01-25T06:43:20;98748.03;;;0.90;100.00
55914;BME280;58179;48.776;9.124;2023-01-25T06:45:46;98746.88;;;0.92;100.00
55914;BME280;58179;48.776;9.124;2023-01-25T06:48:12;98753.06;;;0.91;100.00
55914;BME280;58179;48.776;9.124;2023-01-25T06:50:37;98744.28;;;0.92;100.00
55914;BME280;58179;48.776;9.124;2023-01-25T06:53:03;98741.66;;;0.92;100.00
55914;BME280;58179;48.776;9.124;2023-01-25T06:55:29;98739.06;;;0.92;100.00
55914;BME280;58179;48.776;9.124;2023-01-25T06:57:59;98741.81;;;0.91;100.00
55914;BME280;58179;48.776;9.124;2023-01-25T07:00:27;98747.84;;;0.91;100.00
55914;BME280;58179;48.776;9.124;2023-01-25T07:02:53;98733.22;;;0.90;100.00
55914;BME280;58179;48.776;9.124;2023-01-25T07:05:19;98737.59;;;0.90;100.00
55914;BME280;58179;48.776;9.124;2023-01-25T07:07:45;98735.81;;;0.90;100.00
55914;BME280;58179;48.776;9.124;2023-01-25T07:10:11;98731.38;;;0.91;100.00
55914;BME280;58179;48.776;9.124;2023-01-25T07:12:37;98728.78;;;0.91;100.00
55914;BME280;58179;48.776;9.124;2023-01-25T07:15:04;98723.56;;;0.91;100.00
55914;BME280;58179;48.776;9.124;2023-01-25T07:17:32;98727.81;;;0.92;100.00
55914;BME280;58179;48.776;9.124;2023-01-25T07:19:57;98728.47;;;0.94;100.00
55914;BME280;58179;48.776;9.124;2023-01-25T07:22:23;98726.03;;;0.92;100.00
55914;BME280;58179;48.776;9.124;2023-01-25T07:24:51;98727.81;;;0.92;100.00
55914;BME280;58179;48.776;9.124;2023-01-25T07:27:18;98733.84;;;0.92;100.00
55914;BME280;58179;48.776;9.124;2023-01-25T07:29:44;98729.44;;;0.93;100.00
55914;BME280;58179;48.776;9.124;2023-01-25T07:32:11;98723.28;;;0.94;100.00
55914;BME280;58179;48.776;9.124;2023-01-25T07:34:40;98724.09;;;0.94;100.00
55914;BME280;58179;48.776;9.124;2023-01-25T07:37:06;98725.72;;;0.95;100.00
55914;BME280;58179;48.776;9.124;2023-01-25T07:39:33;98714.16;;;0.98;100.00
55914;BME280;58179;48.776;9.124;2023-01-25T07:42:00;98715.16;;;0.97;100.00
55914;BME280;58179;48.776;9.124;2023-01-25T07:44:26;98723.59;;;0.99;100.00
55914;BME280;58179;48.776;9.124;2023-01-25T07:46:52;98713.19;;;0.99;100.00
55914;BME280;58179;48.776;9.124;2023-01-25T07:49:19;98711.38;;;0.99;100.00
55914;BME280;58179;48.776;9.124;2023-01-25T07:51:46;98714.97;;;0.98;100.00
55914;BME280;58179;48.776;9.124;2023-01-25T07:54:13;98713.19;;;0.99;100.00
55914;BME280;58179;48.776;9.124;2023-01-25T07:56:38;98714.81;;;1.00;100.00
55914;BME280;58179;48.776;9.124;2023-01-25T07:59:06;98709.59;;;1.00;100.00
55914;BME280;58179;48.776;9.124;2023-01-25T08:01:35;98717.28;;;1.01;100.00
55914;BME280;58179;48.776;9.124;2023-01-25T08:04:02;98709.44;;;1.01;100.00
55914;BME280;58179;48.776;9.124;2023-01-25T08:06:31;98718.75;;;1.04;100.00
55914;BME280;58179;48.776;9.124;2023-01-25T08:09:05;98716.97;;;1.04;100.00
55914;BME280;58179;48.776;9.124;2023-01-25T08:11:32;98715.81;;;1.07;100.00
55914;BME280;58179;48.776;9.124;2023-01-25T08:13:58;98718.41;;;1.07;100.00
55914;BME280;58179;48.776;9.124;2023-01-25T08:16:27;98719.91;;;1.09;100.00
55914;BME280;58179;48.776;9.124;2023-01-25T08:18:55;98718.28;;;1.08;100.00
55914;BME280;58179;48.776;9.124;2023-01-25T08:21:24;98718.94;;;1.10;100.00
55914;BME280;58179;48.776;9.124;2023-01-25T08:23:53;98717.16;;;1.11;100.00
55914;BME280;58179;48.776;9.124;2023-01-25T08:26:21;98711.13;;;1.10;100.00
55914;BME280;58179;48.776;9.124;2023-01-25T08:28:46;98720.38;;;1.13;100.00
55914;BME280;58179;48.776;9.124;2023-01-25T08:31:15;98717.63;;;1.14;100.00
55914;BME280;58179;48.776;9.124;2023-01-25T08:33:42;98724.63;;;1.14;100.00
55914;BME280;58179;48.776;9.124;2023-01-25T08:36:09;98729.69;;;1.15;100.00
55914;BME280;58179;48.776;9.124;2023-01-25T08:38:36;98715.69;;;1.16;100.00
55914;BME280;58179;48.776;9.124;2023-01-25T08:41:06;98712.94;;;1.18;100.00
55914;BME280;58179;48.776;9.124;2023-01-25T08:43:33;98717.31;;;1.17;100.00
55914;BME280;58179;48.776;9.124;2023-01-25T08:45:59;98711.97;;;1.19;100.00
55914;BME280;58179;48.776;9.124;2023-01-25T08:48:25;98701.53;;;1.19;100.00
55914;BME280;58179;48.776;9.124;2023-01-25T08:50:51;98709.97;;;1.21;100.00
55914;BME280;58179;48.776;9.124;2023-01-25T08:53:19;98698.44;;;1.24;100.00
55914;BME280;58179;48.776;9.124;2023-01-25T08:55:45;98706.41;;;1.22;100.00
55914;BME280;58179;48.776;9.124;2023-01-25T08:58:12;98690.75;;;1.22;100.00
55914;BME280;58179;48.776;9.124;2023-01-25T09:00:40;98694.34;;;1.21;100.00
55914;BME280;58179;48.776;9.124;2023-01-25T09:03:08;98684.09;;;1.20;100.00
55914;BME280;58179;48.776;9.124;2023-01-25T09:05:35;98693.53;;;1.21;100.00
55914;BME280;58179;48.776;9.124;2023-01-25T09:08:03;98688.31;;;1.21;100.00
55914;BME280;58179;48.776;9.124;2023-01-25T09:10:29;98687.34;;;1.22;100.00
55914;BME280;58179;48.776;9.124;2023-01-25T09:12:55;98683.91;;;1.21;100.00
55914;BME280;58179;48.776;9.124;2023-01-25T09:15:21;98691.28;;;1.26;100.00
55914;BME280;58179;48.776;9.124;2023-01-25T09:17:51;98684.25;;;1.26;100.00
55914;BME280;58179;48.776;9.124;2023-01-25T09:20:17;98681.81;;;1.25;100.00
55914;BME280;58179;48.776;9.124;2023-01-25T09:22:43;98686.06;;;1.26;100.00
55914;BME280;58179;48.776;9.124;2023-01-25T09:25:09;98684.91;;;1.28;100.00
55914;BME280;58179;48.776;9.124;2023-01-25T09:27:36;98680.03;;;1.33;100.00
55914;BME280;58179;48.776;9.124;2023-01-25T09:30:03;98675.78;;;1.32;100.00
55914;BME280;58179;48.776;9.124;2023-01-25T09:32:29;98685.09;;;1.35;100.00
55914;BME280;58179;48.776;9.124;2023-01-25T09:34:56;98684.44;;;1.33;100.00
55914;BME280;58179;48.776;9.124;2023-01-25T09:37:22;98682.81;;;1.32;100.00
55914;BME280;58179;48.776;9.124;2023-01-25T09:39:48;98680.03;;;1.33;100.00
55914;BME280;58179;48.776;9.124;2023-01-25T09:42:44;98686.22;;;1.32;100.00
55914;BME280;58179;48.776;9.124;2023-01-25T09:45:29;98677.91;;;1.37;100.00
55914;BME280;58179;48.776;9.124;2023-01-25T09:48:02;98682.50;;;1.35;100.00
55914;BME280;58179;48.776;9.124;2023-01-25T09:50:36;98686.72;;;1.36;100.00
55914;BME280;58179;48.776;9.124;2023-01-25T09:53:30;98676.47;;;1.34;100.00
55914;BME280;58179;48.776;9.124;2023-01-25T09:56:07;98680.69;;;1.35;100.00
55914;BME280;58179;48.776;9.124;2023-01-25T09:58:38;98681.34;;;1.37;100.00
55914;BME280;58179;48.776;9.124;2023-01-25T10:01:17;98683.78;;;1.39;100.00
55914;BME280;58179;48.776;9.124;2023-01-25T10:03:53;98682.97;;;1.38;100.00
55914;BME280;58179;48.776;9.124;2023-01-25T10:06:26;98675.81;;;1.40;100.00
55914;BME280;58179;48.776;9.124;2023-01-25T10:08:59;98672.38;;;1.40;100.00
55914;BME280;58179;48.776;9.124;2023-01-25T10:11:30;98665.69;;;1.37;100.00
55914;BME280;58179;48.776;9.124;2023-01-25T10:13:57;98669.94;;;1.38;100.00
55914;BME280;58179;48.776;9.124;2023-01-25T10:16:29;98671.72;;;1.38;100.00
55914;BME280;58179;48.776;9.124;2023-01-25T10:19:09;98668.94;;;1.39;100.00
55914;BME280;58179;48.776;9.124;2023-01-25T10:21:41;98663.72;;;1.39;100.00
55914;BME280;58179;48.776;9.124;2023-01-25T10:24:37;98663.72;;;1.39;100.00
55914;BME280;58179;48.776;9.124;2023-01-25T10:27:19;98660.31;;;1.39;100.00
55914;BME280;58179;48.776;9.124;2023-01-25T10:29:49;98653.00;;;1.42;100.00
55914;BME280;58179;48.776;9.124;2023-01-25T10:32:22;98656.22;;;1.44;100.00
55914;BME280;58179;48.776;9.124;2023-01-25T10:34:50;98653.31;;;1.47;100.00
55914;BME280;58179;48.776;9.124;2023-01-25T10:37:20;98650.69;;;1.47;100.00
55914;BME280;58179;48.776;9.124;2023-01-25T10:39:53;98652.34;;;1.48;100.00
55914;BME280;58179;48.776;9.124;2023-01-25T10:42:25;98638.13;;;1.51;100.00
55914;BME280;58179;48.776;9.124;2023-01-25T10:44:52;98640.75;;;1.51;100.00
55914;BME280;58179;48.776;9.124;2023-01-25T10:47:22;98634.53;;;1.52;100.00
55914;BME280;58179;48.776;9.124;2023-01-25T10:49:51;98633.09;;;1.49;100.00
55914;BME280;58179;48.776;9.124;2023-01-25T10:52:21;98628.50;;;1.51;100.00
55914;BME280;58179;48.776;9.124;2023-01-25T10:55:13;98624.09;;;1.52;100.00
55914;BME280;58179;48.776;9.124;2023-01-25T10:57:42;98626.41;;;1.55;100.00
55914;BME280;58179;48.776;9.124;2023-01-25T11:00:23;98615.63;;;1.58;100.00
55914;BME280;58179;48.776;9.124;2023-01-25T11:02:50;98619.72;;;1.61;100.00
55914;BME280;58179;48.776;9.124;2023-01-25T11:05:32;98620.53;;;1.61;100.00
55914;BME280;58179;48.776;9.124;2023-01-25T11:08:22;98620.53;;;1.61;100.00
55914;BME280;58179;48.776;9.124;2023-01-25T11:10:48;98612.69;;;1.61;100.00
55914;BME280;58179;48.776;9.124;2023-01-25T11:13:21;98620.38;;;1.63;100.00
55914;BME280;58179;48.776;9.124;2023-01-25T11:15:50;98611.72;;;1.62;100.00
55914;BME280;58179;48.776;9.124;2023-01-25T11:18:21;98615.00;;;1.64;100.00
55914;BME280;58179;48.776;9.124;2023-01-25T11:20:48;98611.06;;;1.60;100.00
55914;BME280;58179;48.776;9.124;2023-01-25T11:23:28;98613.84;;;1.59;100.00
55914;BME280;58179;48.776;9.124;2023-01-25T11:26:12;98616.63;;;1.57;100.00
55914;BME280;58179;48.776;9.124;2023-01-25T11:28:39;98609.28;;;1.61;100.00
55914;BME280;58179;48.776;9.124;2023-01-25T11:31:10;98606.34;;;1.64;100.00
55914;BME280;58179;48.776;9.124;2023-01-25T11:33:37;98610.91;;;1.62;100.00
55914;BME280;58179;48.776;9.124;2023-01-25T11:36:21;98594.75;;;1.58;100.00
55914;BME280;58179;48.776;9.124;2023-01-25T11:39:10;98586.91;;;1.58;100.00
55914;BME280;58179;48.776;9.124;2023-01-25T11:41:54;98581.06;;;1.56;100.00
55914;BME280;58179;48.776;9.124;2023-01-25T11:45:01;98585.78;;;1.61;100.00
55914;BME280;58179;48.776;9.124;2023-01-25T11:47:49;98576.31;;;1.60;100.00
55914;BME280;58179;48.776;9.124;2023-01-25T11:50:25;98572.91;;;1.59;100.00
55914;BME280;58179;48.776;9.124;2023-01-25T11:53:11;98567.03;;;1.57;100.00
55914;BME280;58179;48.776;9.124;2023-01-25T11:55:48;98561.84;;;1.57;100.00
55914;BME280;58179;48.776;9.124;2023-01-25T11:58:34;98550.56;;;1.57;100.00
55914;BME280;58179;48.776;9.124;2023-01-25T12:01:13;98549.75;;;1.56;100.00
55914;BME280;58179;48.776;9.124;2023-01-25T12:04:17;98546.34;;;1.55;100.00
55914;BME280;58179;48.776;9.124;2023-01-25T12:06:57;98541.94;;;1.56;100.00
55914;BME280;58179;48.776;9.124;2023-01-25T12:09:54;98531.34;;;1.58;100.00
55914;BME280;58179;48.776;9.124;2023-01-25T12:12:37;98528.72;;;1.58;100.00
55914;BME280;58179;48.776;9.124;2023-01-25T12:15:19;98519.88;;;1.59;100.00
55914;BME280;58179;48.776;9.124;2023-01-25T12:21:04;98507.03;;;1.57;100.00
55914;BME280;58179;48.776;9.124;2023-01-25T12:23:35;98496.59;;;1.57;100.00
55914;BME280;58179;48.776;9.124;2023-01-25T12:26:21;98493.78;;;1.59;100.00
55914;BME280;58179;48.776;9.124;2023-01-25T12:29:00;98490.56;;;1.57;100.00
55914;BME280;58179;48.776;9.124;2023-01-25T12:31:36;98477.50;;;1.57;100.00
55914;BME280;58179;48.776;9.124;2023-01-25T12:34:13;98479.31;;;1.56;100.00
55914;BME280;58179;48.776;9.124;2023-01-25T12:36:44;98469.84;;;1.55;100.00
55914;BME280;58179;48.776;9.124;2023-01-25T12:39:15;98458.75;;;1.53;100.00
55914;BME280;58179;48.776;9.124;2023-01-25T12:41:47;98455.16;;;1.54;100.00
55914;BME280;58179;48.776;9.124;2023-01-25T12:44:21;98455.16;;;1.54;100.00
55914;BME280;58179;48.776;9.124;2023-01-25T12:46:55;98454.03;;;1.57;100.00
55914;BME280;58179;48.776;9.124;2023-01-25T12:49:28;98453.06;;;1.58;100.00
55914;BME280;58179;48.776;9.124;2023-01-25T12:51:59;98449.63;;;1.57;100.00
55914;BME280;58179;48.776;9.124;2023-01-25T12:54:31;98446.19;;;1.57;100.00
55914;BME280;58179;48.776;9.124;2023-01-25T12:57:08;98438.69;;;1.53;100.00
55914;BME280;58179;48.776;9.124;2023-01-25T12:59:48;98434.13;;;1.55;100.00
55914;BME280;58179;48.776;9.124;2023-01-25T13:02:40;98430.72;;;1.55;100.00
55914;BME280;58179;48.776;9.124;2023-01-25T13:05:21;98428.09;;;1.55;100.00
55914;BME280;58179;48.776;9.124;2023-01-25T13:07:57;98425.50;;;1.55;100.00
55914;BME280;58179;48.776;9.124;2023-01-25T13:10:30;98413.41;;;1.54;100.00
55914;BME280;58179;48.776;9.124;2023-01-25T13:13:01;98418.63;;;1.54;100.00
55914;BME280;58179;48.776;9.124;2023-01-25T13:15:41;98416.19;;;1.52;100.00
55914;BME280;58179;48.776;9.124;2023-01-25T13:18:36;98402.50;;;1.50;100.00